sensor_id;sensor_type;location;lat;lon;timestamp;pressure;altitude;pressure_sealevel;temperature;humidity
53340;BME280;46212;50.258;19.062;2023-08-06T00:00:39;97232.41;;;18.98;100.00
53340;BME280;46212;50.258;19.062;2023-08-06T00:03:05;97219.84;;;18.92;100.00
53340;BME280;46212;50.258;19.062;2023-08-06T00:05:30;97208.31;;;18.95;100.00
53340;BME280;46212;50.258;19.062;2023-08-06T00:07:56;97213.78;;;18.80;100.00
53340;BME280;46212;50.258;19.062;2023-08-06T00:10:21;97213.69;;;18.73;100.00
53340;BME280;46212;50.258;19.062;2023-08-06T00:12:47;97196.59;;;18.76;100.00
53340;BME280;46212;50.258;19.062;2023-08-06T00:15:13;97172.78;;;18.83;100.00
53340;BME280;46212;50.258;19.062;2023-08-06T00:17:39;97159.56;;;18.83;100.00
53340;BME280;46212;50.258;19.062;2023-08-06T00:20:05;97144.19;;;18.77;100.00
53340;BME280;46212;50.258;19.062;2023-08-06T00:22:35;97122.94;;;18.74;100.00
53340;BME280;46212;50.258;19.062;2023-08-06T00:25:02;97130.81;;;18.83;100.00
53340;BME280;46212;50.258;19.062;2023-08-06T00:27:27;97113.97;;;18.75;100.00
53340;BME280;46212;50.258;19.062;2023-08-06T00:29:52;97078.03;;;18.79;100.00
53340;BME280;46212;50.258;19.062;2023-08-06T00:32:18;97063.09;;;18.77;100.00
53340;BME280;46212;50.258;19.062;2023-08-06T00:34:43;97024.31;;;18.81;100.00
53340;BME280;46212;50.258;19.062;2023-08-06T00:37:09;97000.00;;;18.68;100.00
53340;BME280;46212;50.258;19.062;2023-08-06T00:39:34;97004.31;;;18.69;100.00
53340;BME280;46212;50.258;19.062;2023-08-06T00:42:00;96987.47;;;18.62;100.00
53340;BME280;46212;50.258;19.062;2023-08-06T00:44:25;96977.09;;;18.70;100.00
53340;BME280;46212;50.258;19.062;2023-08-06T00:46:51;97043.44;;;18.69;100.00
53340;BME280;46212;50.258;19.062;2023-08-06T00:49:16;97112.28;;;18.51;100.00
53340;BME280;46212;50.258;19.062;2023-08-06T00:51:42;97100.53;;;18.53;100.00
53340;BME280;46212;50.258;19.062;2023-08-06T00:54:09;97030.97;;;18.70;100.00
53340;BME280;46212;50.258;19.062;2023-08-06T00:56:35;97011.41;;;18.70;100.00
53340;BME280;46212;50.258;19.062;2023-08-06T00:59:04;97006.91;;;18.67;100.00
53340;BME280;46212;50.258;19.062;2023-08-06T01:01:30;97002.41;;;18.64;100.00
53340;BME280;46212;50.258;19.062;2023-08-06T01:03:56;96998.97;;;18.50;100.00
53340;BME280;46212;50.258;19.062;2023-08-06T01:09:31;97027.19;;;18.60;100.00
53340;BME280;46212;50.258;19.062;2023-08-06T01:12:06;97027.09;;;18.52;100.00
53340;BME280;46212;50.258;19.062;2023-08-06T01:14:52;97041.88;;;18.40;100.00
53340;BME280;46212;50.258;19.062;2023-08-06T01:17:20;97042.44;;;18.38;100.00
53340;BME280;46212;50.258;19.062;2023-08-06T01:19:45;97043.19;;;18.60;100.00
53340;BME280;46212;50.258;19.062;2023-08-06T01:22:11;97039.25;;;18.55;100.00
53340;BME280;46212;50.258;19.062;2023-08-06T01:24:36;97017.78;;;18.50;100.00
53340;BME280;46212;50.258;19.062;2023-08-06T01:27:38;97004.56;;;18.50;100.00
53340;BME280;46212;50.258;19.062;2023-08-06T01:32:33;96972.53;;;18.59;100.00
53340;BME280;46212;50.258;19.062;2023-08-06T01:35:00;96956.22;;;18.71;100.00
53340;BME280;46212;50.258;19.062;2023-08-06T01:37:26;96951.34;;;18.64;100.00
53340;BME280;46212;50.258;19.062;2023-08-06T01:39:52;96940.16;;;18.64;100.00
53340;BME280;46212;50.258;19.062;2023-08-06T01:42:18;96931.34;;;18.60;100.00
53340;BME280;46212;50.258;19.062;2023-08-06T01:44:43;96933.06;;;18.63;100.00
53340;BME280;46212;50.258;19.062;2023-08-06T01:47:09;96936.34;;;18.53;100.00
53340;BME280;46212;50.258;19.062;2023-08-06T01:49:34;96954.63;;;18.54;100.00
53340;BME280;46212;50.258;19.062;2023-08-06T01:51:59;96943.25;;;18.52;100.00
53340;BME280;46212;50.258;19.062;2023-08-06T01:54:26;96949.81;;;18.55;100.00
53340;BME280;46212;50.258;19.062;2023-08-06T01:56:51;96965.47;;;18.58;100.00
53340;BME280;46212;50.258;19.062;2023-08-06T01:59:16;96968.13;;;18.64;100.00
53340;BME280;46212;50.258;19.062;2023-08-06T02:01:42;96965.84;;;18.62;100.00
53340;BME280;46212;50.258;19.062;2023-08-06T02:04:07;96964.50;;;18.55;100.00
53340;BME280;46212;50.258;19.062;2023-08-06T02:06:33;96966.00;;;18.56;100.00
53340;BME280;46212;50.258;19.062;2023-08-06T02:08:58;96964.66;;;18.50;100.00
53340;BME280;46212;50.258;19.062;2023-08-06T02:11:23;96960.22;;;18.54;100.00
53340;BME280;46212;50.258;19.062;2023-08-06T02:13:49;96960.00;;;18.52;100.00
53340;BME280;46212;50.258;19.062;2023-08-06T02:16:14;96951.22;;;18.48;100.00
53340;BME280;46212;50.258;19.062;2023-08-06T02:18:39;96951.75;;;18.47;100.00
53340;BME280;46212;50.258;19.062;2023-08-06T02:21:05;96945.69;;;18.56;100.00
53340;BME280;46212;50.258;19.062;2023-08-06T02:23:30;96947.94;;;18.58;100.00
53340;BME280;46212;50.258;19.062;2023-08-06T02:26:03;96941.94;;;18.53;100.00
53340;BME280;46212;50.258;19.062;2023-08-06T02:28:30;96946.78;;;18.53;100.00
53340;BME280;46212;50.258;19.062;2023-08-06T02:30:55;96943.81;;;18.51;100.00
53340;BME280;46212;50.258;19.062;2023-08-06T02:33:21;96939.50;;;18.50;100.00
53340;BME280;46212;50.258;19.062;2023-08-06T02:35:46;96945.91;;;18.37;100.00
53340;BME280;46212;50.258;19.062;2023-08-06T02:38:12;96942.31;;;18.29;100.00
53340;BME280;46212;50.258;19.062;2023-08-06T02:40:45;96936.41;;;18.33;100.00
53340;BME280;46212;50.258;19.062;2023-08-06T02:43:11;96932.94;;;18.47;100.00
53340;BME280;46212;50.258;19.062;2023-08-06T02:45:36;96934.16;;;18.60;100.00
53340;BME280;46212;50.258;19.062;2023-08-06T02:48:02;96920.81;;;18.45;100.00
53340;BME280;46212;50.258;19.062;2023-08-06T02:50:28;96923.41;;;18.43;100.00
53340;BME280;46212;50.258;19.062;2023-08-06T02:52:53;96910.38;;;18.45;100.00
53340;BME280;46212;50.258;19.062;2023-08-06T02:55:18;96923.03;;;18.46;100.00
53340;BME280;46212;50.258;19.062;2023-08-06T02:57:44;96921.75;;;18.47;100.00
53340;BME280;46212;50.258;19.062;2023-08-06T03:00:09;96916.16;;;18.47;100.00
53340;BME280;46212;50.258;19.062;2023-08-06T03:02:37;96914.34;;;18.50;100.00
53340;BME280;46212;50.258;19.062;2023-08-06T03:05:02;96910.44;;;18.53;100.00
53340;BME280;46212;50.258;19.062;2023-08-06T03:07:28;96909.00;;;18.60;100.00
53340;BME280;46212;50.258;19.062;2023-08-06T03:09:54;96917.19;;;18.58;100.00
53340;BME280;46212;50.258;19.062;2023-08-06T03:12:19;96918.66;;;18.58;100.00
53340;BME280;46212;50.258;19.062;2023-08-06T03:14:45;96919.63;;;18.61;100.00
53340;BME280;46212;50.258;19.062;2023-08-06T03:17:10;96913.28;;;18.61;100.00
53340;BME280;46212;50.258;19.062;2023-08-06T03:19:36;96904.91;;;18.61;100.00
53340;BME280;46212;50.258;19.062;2023-08-06T03:22:01;96888.13;;;18.61;100.00
53340;BME280;46212;50.258;19.062;2023-08-06T03:24:26;96893.81;;;18.47;100.00
53340;BME280;46212;50.258;19.062;2023-08-06T03:26:52;96893.41;;;18.43;100.00
53340;BME280;46212;50.258;19.062;2023-08-06T03:29:17;96893.81;;;18.47;100.00
53340;BME280;46212;50.258;19.062;2023-08-06T03:31:43;96894.97;;;18.52;100.00
53340;BME280;46212;50.258;19.062;2023-08-06T03:34:08;96902.81;;;18.53;100.00
53340;BME280;46212;50.258;19.062;2023-08-06T03:36:33;96895.75;;;18.60;100.00
53340;BME280;46212;50.258;19.062;2023-08-06T03:38:59;96881.78;;;18.60;100.00
53340;BME280;46212;50.258;19.062;2023-08-06T03:41:24;96879.69;;;18.53;100.00
53340;BME280;46212;50.258;19.062;2023-08-06T03:43:50;96864.97;;;18.52;100.00
53340;BME280;46212;50.258;19.062;2023-08-06T03:46:15;96860.59;;;18.44;100.00
53340;BME280;46212;50.258;19.062;2023-08-06T03:48:40;96873.28;;;18.45;100.00
53340;BME280;46212;50.258;19.062;2023-08-06T03:51:06;96874.06;;;18.45;100.00
53340;BME280;46212;50.258;19.062;2023-08-06T03:53:31;96857.16;;;18.51;100.00
53340;BME280;46212;50.258;19.062;2023-08-06T03:55:57;96856.97;;;18.56;100.00
53340;BME280;46212;50.258;19.062;2023-08-06T03:58:25;96862.22;;;18.60;100.00
53340;BME280;46212;50.258;19.062;2023-08-06T04:01:00;96863.16;;;18.63;100.00
53340;BME280;46212;50.258;19.062;2023-08-06T04:03:25;96860.53;;;18.65;100.00
53340;BME280;46212;50.258;19.062;2023-08-06T04:05:51;96863.56;;;18.67;100.00
53340;BME280;46212;50.258;19.062;2023-08-06T04:08:16;96862.84;;;18.74;100.00
53340;BME280;46212;50.258;19.062;2023-08-06T04:10:42;96857.25;;;18.81;100.00
53340;BME280;46212;50.258;19.062;2023-08-06T04:13:07;96853.50;;;18.71;100.00
53340;BME280;46212;50.258;19.062;2023-08-06T04:15:35;96861.28;;;18.65;100.00
53340;BME280;46212;50.258;19.062;2023-08-06T04:18:01;96857.97;;;18.67;100.00
53340;BME280;46212;50.258;19.062;2023-08-06T04:20:26;96856.69;;;18.75;100.00
53340;BME280;46212;50.258;19.062;2023-08-06T04:22:54;96862.28;;;18.75;100.00
53340;BME280;46212;50.258;19.062;2023-08-06T04:25:20;96862.41;;;18.62;100.00
53340;BME280;46212;50.258;19.062;2023-08-06T04:27:49;96875.78;;;18.56;100.00
53340;BME280;46212;50.258;19.062;2023-08-06T04:30:14;96862.03;;;18.58;100.00
53340;BME280;46212;50.258;19.062;2023-08-06T04:32:39;96844.84;;;18.54;100.00
53340;BME280;46212;50.258;19.062;2023-08-06T04:35:05;96843.44;;;18.40;100.00
53340;BME280;46212;50.258;19.062;2023-08-06T04:37:31;96842.06;;;18.54;100.00
53340;BME280;46212;50.258;19.062;2023-08-06T04:39:56;96835.19;;;18.63;100.00
53340;BME280;46212;50.258;19.062;2023-08-06T04:42:22;96835.53;;;18.51;100.00
53340;BME280;46212;50.258;19.062;2023-08-06T04:44:47;96829.94;;;18.51;100.00
53340;BME280;46212;50.258;19.062;2023-08-06T04:47:13;96836.59;;;18.48;100.00
53340;BME280;46212;50.258;19.062;2023-08-06T04:49:38;96832.31;;;18.47;100.00
53340;BME280;46212;50.258;19.062;2023-08-06T04:52:04;96825.69;;;18.58;100.00
53340;BME280;46212;50.258;19.062;2023-08-06T04:54:29;96829.38;;;18.53;100.00
53340;BME280;46212;50.258;19.062;2023-08-06T04:56:55;96829.59;;;18.55;100.00
53340;BME280;46212;50.258;19.062;2023-08-06T04:59:20;96823.03;;;18.52;100.00
53340;BME280;46212;50.258;19.062;2023-08-06T05:01:45;96822.50;;;18.54;100.00
53340;BME280;46212;50.258;19.062;2023-08-06T05:04:11;96818.00;;;18.51;100.00
53340;BME280;46212;50.258;19.062;2023-08-06T05:06:36;96819.34;;;18.58;100.00
53340;BME280;46212;50.258;19.062;2023-08-06T05:09:03;96821.03;;;18.61;100.00
53340;BME280;46212;50.258;19.062;2023-08-06T05:11:29;96819.47;;;18.52;100.00
53340;BME280;46212;50.258;19.062;2023-08-06T05:13:55;96806.25;;;18.52;100.00
53340;BME280;46212;50.258;19.062;2023-08-06T05:16:20;96800.72;;;18.60;100.00
53340;BME280;46212;50.258;19.062;2023-08-06T05:18:46;96801.22;;;18.51;100.00
53340;BME280;46212;50.258;19.062;2023-08-06T05:21:11;96793.16;;;18.47;100.00
53340;BME280;46212;50.258;19.062;2023-08-06T05:23:36;96790.63;;;18.57;100.00
53340;BME280;46212;50.258;19.062;2023-08-06T05:26:02;96791.75;;;18.54;100.00
53340;BME280;46212;50.258;19.062;2023-08-06T05:28:28;96776.25;;;18.53;100.00
53340;BME280;46212;50.258;19.062;2023-08-06T05:30:53;96775.38;;;18.66;100.00
53340;BME280;46212;50.258;19.062;2023-08-06T05:33:18;96783.00;;;18.65;100.00
53340;BME280;46212;50.258;19.062;2023-08-06T05:35:44;96768.66;;;18.61;100.00
53340;BME280;46212;50.258;19.062;2023-08-06T05:38:09;96775.38;;;18.66;100.00
53340;BME280;46212;50.258;19.062;2023-08-06T05:40:35;96772.00;;;18.60;100.00
53340;BME280;46212;50.258;19.062;2023-08-06T05:43:00;96774.59;;;18.58;100.00
53340;BME280;46212;50.258;19.062;2023-08-06T05:45:25;96767.16;;;18.60;100.00
53340;BME280;46212;50.258;19.062;2023-08-06T05:47:51;96768.38;;;18.44;100.00
53340;BME280;46212;50.258;19.062;2023-08-06T05:50:16;96759.56;;;18.32;100.00
53340;BME280;46212;50.258;19.062;2023-08-06T05:52:42;96764.06;;;18.35;100.00
53340;BME280;46212;50.258;19.062;2023-08-06T05:55:08;96759.88;;;18.14;100.00
53340;BME280;46212;50.258;19.062;2023-08-06T05:57:33;96746.84;;;18.16;100.00
53340;BME280;46212;50.258;19.062;2023-08-06T05:59:58;96752.34;;;18.01;100.00
53340;BME280;46212;50.258;19.062;2023-08-06T06:02:24;96750.59;;;17.90;100.00
53340;BME280;46212;50.258;19.062;2023-08-06T06:04:49;96745.81;;;17.98;100.00
53340;BME280;46212;50.258;19.062;2023-08-06T06:07:14;96754.53;;;17.95;100.00
53340;BME280;46212;50.258;19.062;2023-08-06T06:09:40;96744.22;;;17.82;100.00
53340;BME280;46212;50.258;19.062;2023-08-06T06:12:06;96737.59;;;17.93;100.00
53340;BME280;46212;50.258;19.062;2023-08-06T06:14:31;96726.19;;;17.83;100.00
53340;BME280;46212;50.258;19.062;2023-08-06T06:16:57;96734.91;;;17.80;100.00
53340;BME280;46212;50.258;19.062;2023-08-06T06:19:22;96728.19;;;17.75;100.00
53340;BME280;46212;50.258;19.062;2023-08-06T06:21:48;96729.59;;;17.40;100.00
53340;BME280;46212;50.258;19.062;2023-08-06T06:24:13;96727.69;;;17.35;100.00
53340;BME280;46212;50.258;19.062;2023-08-06T06:26:38;96712.09;;;17.12;100.00
53340;BME280;46212;50.258;19.062;2023-08-06T06:29:04;96707.25;;;17.12;100.00
53340;BME280;46212;50.258;19.062;2023-08-06T06:31:29;96709.91;;;16.97;100.00
53340;BME280;46212;50.258;19.062;2023-08-06T06:33:55;96710.19;;;16.86;100.00
53340;BME280;46212;50.258;19.062;2023-08-06T06:36:20;96724.88;;;16.86;100.00
53340;BME280;46212;50.258;19.062;2023-08-06T06:38:46;96688.59;;;16.66;100.00
53340;BME280;46212;50.258;19.062;2023-08-06T06:41:12;96690.72;;;16.73;100.00
53340;BME280;46212;50.258;19.062;2023-08-06T06:43:37;96682.56;;;16.41;100.00
53340;BME280;46212;50.258;19.062;2023-08-06T06:46:05;96690.94;;;16.41;100.00
53340;BME280;46212;50.258;19.062;2023-08-06T06:48:32;96683.75;;;16.45;100.00
53340;BME280;46212;50.258;19.062;2023-08-06T06:50:58;96672.81;;;16.47;100.00
53340;BME280;46212;50.258;19.062;2023-08-06T06:53:24;96661.19;;;16.36;100.00
53340;BME280;46212;50.258;19.062;2023-08-06T06:55:56;96660.94;;;16.34;100.00
53340;BME280;46212;50.258;19.062;2023-08-06T06:58:22;96653.91;;;16.33;100.00
53340;BME280;46212;50.258;19.062;2023-08-06T07:00:48;96663.28;;;16.43;100.00
53340;BME280;46212;50.258;19.062;2023-08-06T07:03:14;96657.78;;;16.51;100.00
53340;BME280;46212;50.258;19.062;2023-08-06T07:05:39;96654.25;;;16.50;100.00
53340;BME280;46212;50.258;19.062;2023-08-06T07:08:05;96660.88;;;16.60;100.00
53340;BME280;46212;50.258;19.062;2023-08-06T07:10:30;96678.56;;;16.49;100.00
53340;BME280;46212;50.258;19.062;2023-08-06T07:12:56;96684.06;;;16.55;100.00
53340;BME280;46212;50.258;19.062;2023-08-06T07:15:21;96706.28;;;16.34;100.00
53340;BME280;46212;50.258;19.062;2023-08-06T07:17:46;96715.28;;;16.27;100.00
53340;BME280;46212;50.258;19.062;2023-08-06T07:20:12;96729.91;;;16.20;100.00
53340;BME280;46212;50.258;19.062;2023-08-06T07:22:37;96748.84;;;16.22;100.00
53340;BME280;46212;50.258;19.062;2023-08-06T07:25:03;96751.00;;;16.16;100.00
53340;BME280;46212;50.258;19.062;2023-08-06T07:27:28;96747.78;;;16.12;100.00
53340;BME280;46212;50.258;19.062;2023-08-06T07:29:54;96740.59;;;16.16;100.00
53340;BME280;46212;50.258;19.062;2023-08-06T07:32:19;96733.00;;;16.17;100.00
53340;BME280;46212;50.258;19.062;2023-08-06T07:34:44;96725.50;;;16.12;100.00
53340;BME280;46212;50.258;19.062;2023-08-06T07:37:10;96736.31;;;16.15;100.00
53340;BME280;46212;50.258;19.062;2023-08-06T07:39:35;96751.00;;;16.16;100.00
53340;BME280;46212;50.258;19.062;2023-08-06T07:42:03;96757.22;;;16.09;100.00
53340;BME280;46212;50.258;19.062;2023-08-06T07:44:31;96750.25;;;15.89;100.00
53340;BME280;46212;50.258;19.062;2023-08-06T07:46:56;96737.41;;;15.73;100.00
53340;BME280;46212;50.258;19.062;2023-08-06T07:49:21;96739.25;;;15.83;100.00
53340;BME280;46212;50.258;19.062;2023-08-06T07:51:47;96745.13;;;15.80;100.00
53340;BME280;46212;50.258;19.062;2023-08-06T07:54:12;96766.22;;;15.75;100.00
53340;BME280;46212;50.258;19.062;2023-08-06T07:56:38;96772.31;;;15.61;100.00
53340;BME280;46212;50.258;19.062;2023-08-06T07:59:03;96779.22;;;15.41;100.00
53340;BME280;46212;50.258;19.062;2023-08-06T08:01:28;96763.59;;;15.38;100.00
53340;BME280;46212;50.258;19.062;2023-08-06T08:03:54;96761.13;;;15.34;100.00
53340;BME280;46212;50.258;19.062;2023-08-06T08:06:19;96737.59;;;15.35;100.00
53340;BME280;46212;50.258;19.062;2023-08-06T08:08:45;96732.56;;;15.34;100.00
53340;BME280;46212;50.258;19.062;2023-08-06T08:11:10;96733.22;;;15.40;100.00
53340;BME280;46212;50.258;19.062;2023-08-06T08:13:36;96731.56;;;15.50;100.00
53340;BME280;46212;50.258;19.062;2023-08-06T08:16:01;96733.03;;;15.51;100.00
53340;BME280;46212;50.258;19.062;2023-08-06T08:18:27;96723.72;;;15.75;100.00
53340;BME280;46212;50.258;19.062;2023-08-06T08:20:52;96726.50;;;15.75;100.00
53340;BME280;46212;50.258;19.062;2023-08-06T08:23:18;96732.84;;;15.88;100.00
53340;BME280;46212;50.258;19.062;2023-08-06T08:25:43;96731.31;;;16.14;100.00
53340;BME280;46212;50.258;19.062;2023-08-06T08:28:09;96733.53;;;16.15;100.00
53340;BME280;46212;50.258;19.062;2023-08-06T08:30:34;96729.91;;;16.20;100.00
53340;BME280;46212;50.258;19.062;2023-08-06T08:33:00;96725.72;;;16.14;100.00
53340;BME280;46212;50.258;19.062;2023-08-06T08:35:25;96719.72;;;16.10;100.00
53340;BME280;46212;50.258;19.062;2023-08-06T08:37:51;96727.41;;;16.30;100.00
53340;BME280;46212;50.258;19.062;2023-08-06T08:40:17;96724.91;;;16.39;100.00
53340;BME280;46212;50.258;19.062;2023-08-06T08:42:43;96735.00;;;16.29;100.00
53340;BME280;46212;50.258;19.062;2023-08-06T08:45:13;96752.63;;;15.98;100.00
53340;BME280;46212;50.258;19.062;2023-08-06T08:47:40;96747.16;;;15.92;100.00
53340;BME280;46212;50.258;19.062;2023-08-06T08:50:08;96737.72;;;15.95;100.00
53340;BME280;46212;50.258;19.062;2023-08-06T08:52:36;96727.22;;;16.02;100.00
53340;BME280;46212;50.258;19.062;2023-08-06T08:55:02;96727.66;;;16.06;100.00
53340;BME280;46212;50.258;19.062;2023-08-06T08:57:27;96734.72;;;16.20;100.00
53340;BME280;46212;50.258;19.062;2023-08-06T08:59:53;96737.56;;;16.27;100.00
53340;BME280;46212;50.258;19.062;2023-08-06T09:02:21;96731.25;;;16.27;100.00
53340;BME280;46212;50.258;19.062;2023-08-06T09:04:47;96725.81;;;16.21;100.00
53340;BME280;46212;50.258;19.062;2023-08-06T09:07:16;96728.88;;;16.31;100.00
53340;BME280;46212;50.258;19.062;2023-08-06T09:09:43;96740.34;;;16.27;100.00
53340;BME280;46212;50.258;19.062;2023-08-06T09:12:14;96731.00;;;16.04;100.00
53340;BME280;46212;50.258;19.062;2023-08-06T09:14:40;96732.06;;;16.01;100.00
53340;BME280;46212;50.258;19.062;2023-08-06T09:17:06;96738.47;;;15.96;100.00
53340;BME280;46212;50.258;19.062;2023-08-06T09:19:31;96721.13;;;16.03;100.00
53340;BME280;46212;50.258;19.062;2023-08-06T09:21:58;96714.63;;;16.01;100.00
53340;BME280;46212;50.258;19.062;2023-08-06T09:24:23;96714.53;;;16.27;100.00
53340;BME280;46212;50.258;19.062;2023-08-06T09:26:49;96711.69;;;16.19;100.00
53340;BME280;46212;50.258;19.062;2023-08-06T09:29:14;96697.25;;;16.08;100.00
53340;BME280;46212;50.258;19.062;2023-08-06T09:34:19;96710.88;;;15.98;100.00
53340;BME280;46212;50.258;19.062;2023-08-06T09:36:47;96702.06;;;16.07;100.00
53340;BME280;46212;50.258;19.062;2023-08-06T09:39:14;96706.13;;;16.06;100.00
53340;BME280;46212;50.258;19.062;2023-08-06T09:41:41;96714.16;;;16.10;100.00
53340;BME280;46212;50.258;19.062;2023-08-06T09:44:18;96714.81;;;15.89;100.00
53340;BME280;46212;50.258;19.062;2023-08-06T09:46:54;96726.19;;;15.78;100.00
53340;BME280;46212;50.258;19.062;2023-08-06T09:49:24;96716.53;;;15.92;100.00
53340;BME280;46212;50.258;19.062;2023-08-06T09:51:54;96722.47;;;15.76;100.00
53340;BME280;46212;50.258;19.062;2023-08-06T09:54:24;96721.16;;;15.77;100.00
53340;BME280;46212;50.258;19.062;2023-08-06T09:56:52;96724.50;;;15.75;100.00
53340;BME280;46212;50.258;19.062;2023-08-06T09:59:18;96720.63;;;15.78;100.00
53340;BME280;46212;50.258;19.062;2023-08-06T10:01:45;96737.00;;;15.82;100.00
53340;BME280;46212;50.258;19.062;2023-08-06T10:04:10;96736.69;;;15.72;100.00
53340;BME280;46212;50.258;19.062;2023-08-06T10:06:37;96738.16;;;15.73;100.00
53340;BME280;46212;50.258;19.062;2023-08-06T10:09:04;96743.31;;;15.69;100.00
53340;BME280;46212;50.258;19.062;2023-08-06T10:11:30;96742.34;;;15.67;100.00
53340;BME280;46212;50.258;19.062;2023-08-06T10:14:05;96746.50;;;15.60;100.00
53340;BME280;46212;50.258;19.062;2023-08-06T10:16:32;96740.88;;;15.66;100.00
53340;BME280;46212;50.258;19.062;2023-08-06T10:18:58;96747.47;;;15.50;100.00
53340;BME280;46212;50.258;19.062;2023-08-06T10:21:24;96757.56;;;15.66;100.00
53340;BME280;46212;50.258;19.062;2023-08-06T10:23:55;96754.13;;;15.60;100.00
53340;BME280;46212;50.258;19.062;2023-08-06T10:26:25;96765.34;;;15.67;100.00
53340;BME280;46212;50.258;19.062;2023-08-06T10:28:50;96767.38;;;15.67;100.00
53340;BME280;46212;50.258;19.062;2023-08-06T10:31:15;96770.94;;;15.67;100.00
53340;BME280;46212;50.258;19.062;2023-08-06T10:33:42;96767.41;;;15.93;100.00
53340;BME280;46212;50.258;19.062;2023-08-06T10:36:09;96769.03;;;15.75;100.00
53340;BME280;46212;50.258;19.062;2023-08-06T10:38:35;96772.22;;;15.66;100.00
53340;BME280;46212;50.258;19.062;2023-08-06T10:41:15;96767.16;;;15.52;100.00
53340;BME280;46212;50.258;19.062;2023-08-06T10:43:40;96765.53;;;15.43;100.00
53340;BME280;46212;50.258;19.062;2023-08-06T10:46:22;96771.78;;;15.62;100.00
53340;BME280;46212;50.258;19.062;2023-08-06T10:48:48;96764.53;;;15.72;100.00
53340;BME280;46212;50.258;19.062;2023-08-06T10:51:14;96757.22;;;15.56;100.00
53340;BME280;46212;50.258;19.062;2023-08-06T10:53:44;96762.38;;;15.65;100.00
53340;BME280;46212;50.258;19.062;2023-08-06T10:56:20;96769.09;;;15.70;100.00
53340;BME280;46212;50.258;19.062;2023-08-06T10:58:48;96784.22;;;15.74;100.00
53340;BME280;46212;50.258;19.062;2023-08-06T11:01:14;96792.66;;;15.69;100.00
53340;BME280;46212;50.258;19.062;2023-08-06T11:03:41;96789.88;;;15.69;100.00
53340;BME280;46212;50.258;19.062;2023-08-06T11:06:08;96797.78;;;15.52;100.00
53340;BME280;46212;50.258;19.062;2023-08-06T11:08:35;96789.50;;;15.46;100.00
53340;BME280;46212;50.258;19.062;2023-08-06T11:11:11;96799.06;;;15.51;100.00
53340;BME280;46212;50.258;19.062;2023-08-06T11:13:38;96798.97;;;15.56;100.00
53340;BME280;46212;50.258;19.062;2023-08-06T11:16:05;96799.22;;;15.39;100.00
53340;BME280;46212;50.258;19.062;2023-08-06T11:18:31;96787.09;;;15.56;100.00
53340;BME280;46212;50.258;19.062;2023-08-06T11:20:59;96791.47;;;15.64;100.00
53340;BME280;46212;50.258;19.062;2023-08-06T11:23:26;96790.53;;;15.75;100.00
53340;BME280;46212;50.258;19.062;2023-08-06T11:25:53;96789.91;;;15.37;100.00
53340;BME280;46212;50.258;19.062;2023-08-06T11:28:19;96784.69;;;15.47;100.00
53340;BME280;46212;50.258;19.062;2023-08-06T11:30:47;96787.75;;;15.30;100.00
53340;BME280;46212;50.258;19.062;2023-08-06T11:33:12;96786.88;;;15.22;100.00
53340;BME280;46212;50.258;19.062;2023-08-06T11:35:38;96794.84;;;15.44;100.00
53340;BME280;46212;50.258;19.062;2023-08-06T11:38:05;96790.50;;;15.49;100.00
53340;BME280;46212;50.258;19.062;2023-08-06T11:40:32;96792.97;;;15.65;100.00
53340;BME280;46212;50.258;19.062;2023-08-06T11:42:57;96815.56;;;15.75;100.00
53340;BME280;46212;50.258;19.062;2023-08-06T11:45:26;96802.63;;;15.77;100.00
53340;BME280;46212;50.258;19.062;2023-08-06T11:47:52;96809.66;;;15.52;100.00
53340;BME280;46212;50.258;19.062;2023-08-06T11:50:25;96812.97;;;15.64;100.00
53340;BME280;46212;50.258;19.062;2023-08-06T11:52:59;96807.72;;;15.60;100.00
53340;BME280;46212;50.258;19.062;2023-08-06T11:55:26;96790.81;;;15.58;100.00
53340;BME280;46212;50.258;19.062;2023-08-06T11:57:54;96798.22;;;15.69;100.00
53340;BME280;46212;50.258;19.062;2023-08-06T12:00:19;96807.09;;;15.67;100.00
53340;BME280;46212;50.258;19.062;2023-08-06T12:02:48;96802.72;;;15.72;100.00
53340;BME280;46212;50.258;19.062;2023-08-06T12:07:56;96814.50;;;15.78;100.00
53340;BME280;46212;50.258;19.062;2023-08-06T12:10:24;96822.84;;;15.65;100.00
53340;BME280;46212;50.258;19.062;2023-08-06T12:12:49;96827.03;;;15.71;100.00
53340;BME280;46212;50.258;19.062;2023-08-06T12:15:16;96826.72;;;15.88;100.00
53340;BME280;46212;50.258;19.062;2023-08-06T12:17:42;96831.75;;;15.89;100.00
53340;BME280;46212;50.258;19.062;2023-08-06T12:20:08;96836.03;;;15.90;100.00
53340;BME280;46212;50.258;19.062;2023-08-06T12:22:34;96833.47;;;15.92;100.00
53340;BME280;46212;50.258;19.062;2023-08-06T12:25:04;96843.53;;;16.22;100.00
53340;BME280;46212;50.258;19.062;2023-08-06T12:27:34;96857.59;;;16.29;100.00
53340;BME280;46212;50.258;19.062;2023-08-06T12:29:59;96853.91;;;16.74;100.00
53340;BME280;46212;50.258;19.062;2023-08-06T12:32:25;96840.63;;;16.54;100.00
53340;BME280;46212;50.258;19.062;2023-08-06T12:34:51;96857.47;;;16.09;100.00
53340;BME280;46212;50.258;19.062;2023-08-06T12:37:16;96861.53;;;16.21;100.00
53340;BME280;46212;50.258;19.062;2023-08-06T12:39:41;96866.88;;;16.45;100.00
53340;BME280;46212;50.258;19.062;2023-08-06T12:42:07;96866.78;;;16.37;100.00
53340;BME280;46212;50.258;19.062;2023-08-06T12:44:32;96877.59;;;16.28;100.00
53340;BME280;46212;50.258;19.062;2023-08-06T12:46:58;96875.44;;;16.34;100.00